sensor_id;sensor_type;location;lat;lon;timestamp;P1;durP1;ratioP1;P2;durP2;ratioP2
40623;SDS011;26325;48.594;11.650;2023-03-16T00:02:03;4.60;;;3.50;;
40623;SDS011;26325;48.594;11.650;2023-03-16T00:04:32;3.47;;;3.17;;
40623;SDS011;26325;48.594;11.650;2023-03-16T00:07:10;4.05;;;3.20;;
40623;SDS011;26325;48.594;11.650;2023-03-16T00:09:37;4.38;;;3.40;;
40623;SDS011;26325;48.594;11.650;2023-03-16T00:12:15;3.97;;;3.58;;
40623;SDS011;26325;48.594;11.650;2023-03-16T00:14:43;4.05;;;3.58;;
40623;SDS011;26325;48.594;11.650;2023-03-16T00:17:14;4.03;;;3.28;;
40623;SDS011;26325;48.594;11.650;2023-03-16T00:19:54;4.47;;;3.80;;
40623;SDS011;26325;48.594;11.650;2023-03-16T00:22:28;3.83;;;3.40;;
40623;SDS011;26325;48.594;11.650;2023-03-16T00:24:57;3.95;;;3.55;;
40623;SDS011;26325;48.594;11.650;2023-03-16T00:27:24;4.70;;;3.70;;
40623;SDS011;26325;48.594;11.650;2023-03-16T00:29:51;4.28;;;3.42;;
40623;SDS011;26325;48.594;11.650;2023-03-16T00:32:32;4.20;;;3.80;;
40623;SDS011;26325;48.594;11.650;2023-03-16T00:35:02;4.93;;;3.72;;
40623;SDS011;26325;48.594;11.650;2023-03-16T00:37:32;4.15;;;3.75;;
40623;SDS011;26325;48.594;11.650;2023-03-16T00:39:58;4.20;;;3.58;;
40623;SDS011;26325;48.594;11.650;2023-03-16T00:42:27;4.40;;;3.25;;
40623;SDS011;26325;48.594;11.650;2023-03-16T00:44:55;4.00;;;3.65;;
40623;SDS011;26325;48.594;11.650;2023-03-16T00:47:26;4.03;;;3.47;;
40623;SDS011;26325;48.594;11.650;2023-03-16T00:49:54;3.85;;;3.45;;
40623;SDS011;26325;48.594;11.650;2023-03-16T00:52:23;3.55;;;3.25;;
40623;SDS011;26325;48.594;11.650;2023-03-16T00:54:52;3.78;;;3.40;;
40623;SDS011;26325;48.594;11.650;2023-03-16T00:57:19;5.78;;;3.90;;
40623;SDS011;26325;48.594;11.650;2023-03-16T00:59:47;4.32;;;3.65;;
40623;SDS011;26325;48.594;11.650;2023-03-16T01:02:14;4.55;;;3.72;;
40623;SDS011;26325;48.594;11.650;2023-03-16T01:04:43;5.32;;;3.88;;
40623;SDS011;26325;48.594;11.650;2023-03-16T01:07:12;4.28;;;3.85;;
40623;SDS011;26325;48.594;11.650;2023-03-16T01:09:39;5.18;;;3.67;;
40623;SDS011;26325;48.594;11.650;2023-03-16T01:12:08;6.95;;;3.88;;
40623;SDS011;26325;48.594;11.650;2023-03-16T01:14:39;5.47;;;3.80;;
40623;SDS011;26325;48.594;11.650;2023-03-16T01:17:06;4.32;;;3.70;;
40623;SDS011;26325;48.594;11.650;2023-03-16T01:19:35;3.80;;;3.42;;
40623;SDS011;26325;48.594;11.650;2023-03-16T01:22:05;6.88;;;4.18;;
40623;SDS011;26325;48.594;11.650;2023-03-16T01:24:32;4.60;;;3.63;;
40623;SDS011;26325;48.594;11.650;2023-03-16T01:27:00;3.97;;;3.58;;
40623;SDS011;26325;48.594;11.650;2023-03-16T01:29:32;4.50;;;4.10;;
40623;SDS011;26325;48.594;11.650;2023-03-16T01:31:58;3.90;;;3.60;;
40623;SDS011;26325;48.594;11.650;2023-03-16T01:34:24;4.90;;;4.35;;
40623;SDS011;26325;48.594;11.650;2023-03-16T01:36:50;4.65;;;4.13;;
40623;SDS011;26325;48.594;11.650;2023-03-16T01:39:16;4.70;;;4.20;;
40623;SDS011;26325;48.594;11.650;2023-03-16T01:41:45;4.47;;;3.92;;
40623;SDS011;26325;48.594;11.650;2023-03-16T01:44:21;4.78;;;4.20;;
40623;SDS011;26325;48.594;11.650;2023-03-16T01:49:28;4.47;;;4.07;;
40623;SDS011;26325;48.594;11.650;2023-03-16T01:52:10;4.93;;;4.40;;
40623;SDS011;26325;48.594;11.650;2023-03-16T01:54:48;5.00;;;4.50;;
40623;SDS011;26325;48.594;11.650;2023-03-16T01:57:29;4.75;;;4.25;;
40623;SDS011;26325;48.594;11.650;2023-03-16T02:02:39;5.55;;;4.80;;
40623;SDS011;26325;48.594;11.650;2023-03-16T02:05:16;6.38;;;5.03;;
40623;SDS011;26325;48.594;11.650;2023-03-16T02:07:48;4.72;;;4.20;;
40623;SDS011;26325;48.594;11.650;2023-03-16T02:10:18;5.00;;;4.50;;
40623;SDS011;26325;48.594;11.650;2023-03-16T02:12:44;6.05;;;4.90;;
40623;SDS011;26325;48.594;11.650;2023-03-16T02:15:11;4.47;;;4.07;;
40623;SDS011;26325;48.594;11.650;2023-03-16T02:17:40;5.03;;;4.50;;
40623;SDS011;26325;48.594;11.650;2023-03-16T02:22:50;5.97;;;5.38;;
40623;SDS011;26325;48.594;11.650;2023-03-16T02:25:28;6.05;;;5.28;;
40623;SDS011;26325;48.594;11.650;2023-03-16T02:30:47;4.82;;;4.40;;
40623;SDS011;26325;48.594;11.650;2023-03-16T02:33:15;5.20;;;4.70;;
40623;SDS011;26325;48.594;11.650;2023-03-16T02:35:46;5.30;;;4.80;;
40623;SDS011;26325;48.594;11.650;2023-03-16T02:38:13;5.43;;;4.57;;
40623;SDS011;26325;48.594;11.650;2023-03-16T02:40:39;4.78;;;4.28;;
40623;SDS011;26325;48.594;11.650;2023-03-16T02:43:16;5.22;;;4.72;;
40623;SDS011;26325;48.594;11.650;2023-03-16T02:45:57;5.07;;;4.57;;
40623;SDS011;26325;48.594;11.650;2023-03-16T02:51:33;5.78;;;5.18;;
40623;SDS011;26325;48.594;11.650;2023-03-16T02:54:01;5.53;;;4.85;;
40623;SDS011;26325;48.594;11.650;2023-03-16T02:56:27;5.72;;;5.22;;
40623;SDS011;26325;48.594;11.650;2023-03-16T02:58:53;5.80;;;4.60;;
40623;SDS011;26325;48.594;11.650;2023-03-16T03:01:21;5.55;;;5.05;;
40623;SDS011;26325;48.594;11.650;2023-03-16T03:03:47;6.88;;;4.65;;
40623;SDS011;26325;48.594;11.650;2023-03-16T03:06:15;5.30;;;4.80;;
40623;SDS011;26325;48.594;11.650;2023-03-16T03:08:47;5.00;;;4.50;;
40623;SDS011;26325;48.594;11.650;2023-03-16T03:11:15;5.05;;;4.65;;
40623;SDS011;26325;48.594;11.650;2023-03-16T03:13:42;4.85;;;4.43;;
40623;SDS011;26325;48.594;11.650;2023-03-16T03:16:12;5.20;;;4.70;;
40623;SDS011;26325;48.594;11.650;2023-03-16T03:18:45;5.20;;;4.65;;
40623;SDS011;26325;48.594;11.650;2023-03-16T03:21:16;5.50;;;4.90;;
40623;SDS011;26325;48.594;11.650;2023-03-16T03:23:43;5.65;;;5.05;;
40623;SDS011;26325;48.594;11.650;2023-03-16T03:26:11;5.22;;;4.75;;
40623;SDS011;26325;48.594;11.650;2023-03-16T03:28:39;5.50;;;5.00;;
40623;SDS011;26325;48.594;11.650;2023-03-16T03:31:06;5.50;;;5.05;;
40623;SDS011;26325;48.594;11.650;2023-03-16T03:33:32;5.75;;;5.25;;
40623;SDS011;26325;48.594;11.650;2023-03-16T03:35:58;6.10;;;5.50;;
40623;SDS011;26325;48.594;11.650;2023-03-16T03:38:26;5.80;;;5.30;;
40623;SDS011;26325;48.594;11.650;2023-03-16T03:40:52;6.63;;;5.90;;
40623;SDS011;26325;48.594;11.650;2023-03-16T03:43:19;6.13;;;5.57;;
40623;SDS011;26325;48.594;11.650;2023-03-16T03:45:47;6.20;;;5.60;;
40623;SDS011;26325;48.594;11.650;2023-03-16T03:48:15;6.53;;;5.90;;
40623;SDS011;26325;48.594;11.650;2023-03-16T03:50:41;6.80;;;6.10;;
40623;SDS011;26325;48.594;11.650;2023-03-16T03:53:08;7.25;;;6.55;;
40623;SDS011;26325;48.594;11.650;2023-03-16T03:55:36;7.15;;;6.13;;
40623;SDS011;26325;48.594;11.650;2023-03-16T03:58:02;6.63;;;6.03;;
40623;SDS011;26325;48.594;11.650;2023-03-16T04:00:30;5.82;;;5.22;;
40623;SDS011;26325;48.594;11.650;2023-03-16T04:02:55;6.50;;;5.90;;
40623;SDS011;26325;48.594;11.650;2023-03-16T04:05:24;6.63;;;5.93;;
40623;SDS011;26325;48.594;11.650;2023-03-16T04:07:52;6.35;;;5.75;;
40623;SDS011;26325;48.594;11.650;2023-03-16T04:10:28;6.28;;;5.68;;
40623;SDS011;26325;48.594;11.650;2023-03-16T04:12:59;6.72;;;6.03;;
40623;SDS011;26325;48.594;11.650;2023-03-16T04:15:25;6.50;;;5.90;;
40623;SDS011;26325;48.594;11.650;2023-03-16T04:17:51;6.75;;;6.05;;
40623;SDS011;26325;48.594;11.650;2023-03-16T04:20:19;6.40;;;5.65;;
40623;SDS011;26325;48.594;11.650;2023-03-16T04:22:47;6.78;;;6.13;;
40623;SDS011;26325;48.594;11.650;2023-03-16T04:25:15;6.82;;;6.13;;
40623;SDS011;26325;48.594;11.650;2023-03-16T04:27:42;6.47;;;5.88;;
40623;SDS011;26325;48.594;11.650;2023-03-16T04:30:12;6.57;;;5.78;;
40623;SDS011;26325;48.594;11.650;2023-03-16T04:32:41;6.93;;;6.22;;
40623;SDS011;26325;48.594;11.650;2023-03-16T04:35:07;7.43;;;6.30;;
40623;SDS011;26325;48.594;11.650;2023-03-16T04:37:36;6.57;;;5.97;;
40623;SDS011;26325;48.594;11.650;2023-03-16T04:40:04;6.85;;;6.13;;
40623;SDS011;26325;48.594;11.650;2023-03-16T04:42:36;6.82;;;6.13;;
40623;SDS011;26325;48.594;11.650;2023-03-16T04:45:02;7.35;;;6.65;;
40623;SDS011;26325;48.594;11.650;2023-03-16T04:47:30;6.60;;;5.97;;
40623;SDS011;26325;48.594;11.650;2023-03-16T04:49:59;8.02;;;7.10;;
40623;SDS011;26325;48.594;11.650;2023-03-16T04:52:29;7.88;;;6.82;;
40623;SDS011;26325;48.594;11.650;2023-03-16T04:55:02;6.43;;;5.82;;
40623;SDS011;26325;48.594;11.650;2023-03-16T04:57:27;7.05;;;6.35;;
40623;SDS011;26325;48.594;11.650;2023-03-16T04:59:58;8.05;;;7.03;;
40623;SDS011;26325;48.594;11.650;2023-03-16T05:02:26;7.28;;;6.57;;
40623;SDS011;26325;48.594;11.650;2023-03-16T05:04:54;7.30;;;6.60;;
40623;SDS011;26325;48.594;11.650;2023-03-16T05:07:22;7.78;;;6.97;;
40623;SDS011;26325;48.594;11.650;2023-03-16T05:09:47;8.15;;;7.15;;
40623;SDS011;26325;48.594;11.650;2023-03-16T05:12:13;9.30;;;7.60;;
40623;SDS011;26325;48.594;11.650;2023-03-16T05:14:38;7.97;;;7.18;;
40623;SDS011;26325;48.594;11.650;2023-03-16T05:17:06;8.70;;;7.60;;
40623;SDS011;26325;48.594;11.650;2023-03-16T05:19:36;7.97;;;7.18;;
40623;SDS011;26325;48.594;11.650;2023-03-16T05:22:02;7.82;;;6.85;;
40623;SDS011;26325;48.594;11.650;2023-03-16T05:24:27;8.15;;;7.07;;
40623;SDS011;26325;48.594;11.650;2023-03-16T05:26:55;9.90;;;8.90;;
40623;SDS011;26325;48.594;11.650;2023-03-16T05:29:23;14.25;;;11.48;;
40623;SDS011;26325;48.594;11.650;2023-03-16T05:31:50;13.80;;;11.65;;
40623;SDS011;26325;48.594;11.650;2023-03-16T05:34:15;12.50;;;11.20;;
40623;SDS011;26325;48.594;11.650;2023-03-16T05:36:41;12.88;;;10.38;;
40623;SDS011;26325;48.594;11.650;2023-03-16T05:39:09;13.95;;;11.50;;
40623;SDS011;26325;48.594;11.650;2023-03-16T05:41:35;12.90;;;10.82;;
40623;SDS011;26325;48.594;11.650;2023-03-16T05:44:01;11.75;;;10.00;;
40623;SDS011;26325;48.594;11.650;2023-03-16T05:46:32;11.90;;;9.25;;
40623;SDS011;26325;48.594;11.650;2023-03-16T05:48:57;11.43;;;10.13;;
40623;SDS011;26325;48.594;11.650;2023-03-16T05:51:23;11.85;;;10.40;;
40623;SDS011;26325;48.594;11.650;2023-03-16T05:53:52;11.32;;;10.20;;
40623;SDS011;26325;48.594;11.650;2023-03-16T05:56:26;12.00;;;10.20;;
40623;SDS011;26325;48.594;11.650;2023-03-16T05:58:53;13.52;;;10.70;;
40623;SDS011;26325;48.594;11.650;2023-03-16T06:01:22;14.80;;;10.88;;
40623;SDS011;26325;48.594;11.650;2023-03-16T06:03:49;16.50;;;12.10;;
40623;SDS011;26325;48.594;11.650;2023-03-16T06:06:16;15.40;;;12.10;;
40623;SDS011;26325;48.594;11.650;2023-03-16T06:08:45;14.98;;;11.30;;
40623;SDS011;26325;48.594;11.650;2023-03-16T06:11:11;16.70;;;12.00;;
40623;SDS011;26325;48.594;11.650;2023-03-16T06:13:38;18.25;;;13.80;;
40623;SDS011;26325;48.594;11.650;2023-03-16T06:16:06;16.70;;;12.88;;
40623;SDS011;26325;48.594;11.650;2023-03-16T06:18:35;14.18;;;11.95;;
40623;SDS011;26325;48.594;11.650;2023-03-16T06:23:28;11.27;;;10.10;;
40623;SDS011;26325;48.594;11.650;2023-03-16T06:28:19;11.77;;;10.40;;
40623;SDS011;26325;48.594;11.650;2023-03-16T06:30:45;10.23;;;9.23;;
40623;SDS011;26325;48.594;11.650;2023-03-16T06:35:38;9.77;;;8.77;;
40623;SDS011;26325;48.594;11.650;2023-03-16T06:40:29;9.90;;;9.02;;
40623;SDS011;26325;48.594;11.650;2023-03-16T06:42:55;8.50;;;7.80;;
40623;SDS011;26325;48.594;11.650;2023-03-16T06:45:24;9.10;;;8.30;;
40623;SDS011;26325;48.594;11.650;2023-03-16T06:47:50;7.30;;;6.80;;
40623;SDS011;26325;48.594;11.650;2023-03-16T06:50:16;10.40;;;9.63;;
40623;SDS011;26325;48.594;11.650;2023-03-16T06:52:42;6.30;;;5.70;;
40623;SDS011;26325;48.594;11.650;2023-03-16T06:55:08;6.30;;;5.80;;
40623;SDS011;26325;48.594;11.650;2023-03-16T06:57:34;5.90;;;5.40;;
40623;SDS011;26325;48.594;11.650;2023-03-16T07:00:00;8.15;;;7.47;;
40623;SDS011;26325;48.594;11.650;2023-03-16T07:02:28;4.70;;;4.35;;
40623;SDS011;26325;48.594;11.650;2023-03-16T07:04:53;4.45;;;4.15;;
40623;SDS011;26325;48.594;11.650;2023-03-16T07:07:19;3.75;;;3.55;;
40623;SDS011;26325;48.594;11.650;2023-03-16T07:09:46;3.75;;;3.55;;
40623;SDS011;26325;48.594;11.650;2023-03-16T07:12:11;3.60;;;3.40;;
40623;SDS011;26325;48.594;11.650;2023-03-16T07:14:38;4.38;;;4.05;;
40623;SDS011;26325;48.594;11.650;2023-03-16T07:17:06;5.10;;;4.80;;
40623;SDS011;26325;48.594;11.650;2023-03-16T07:19:31;5.97;;;5.47;;
40623;SDS011;26325;48.594;11.650;2023-03-16T07:21:57;5.65;;;5.25;;
40623;SDS011;26325;48.594;11.650;2023-03-16T07:24:22;6.70;;;6.20;;
40623;SDS011;26325;48.594;11.650;2023-03-16T07:29:14;6.38;;;5.88;;
40623;SDS011;26325;48.594;11.650;2023-03-16T07:31:42;6.78;;;6.10;;
40623;SDS011;26325;48.594;11.650;2023-03-16T07:36:33;6.70;;;6.20;;
40623;SDS011;26325;48.594;11.650;2023-03-16T07:41:27;8.30;;;7.60;;
40623;SDS011;26325;48.594;11.650;2023-03-16T07:43:55;8.35;;;7.63;;
40623;SDS011;26325;48.594;11.650;2023-03-16T07:46:23;7.20;;;6.60;;
40623;SDS011;26325;48.594;11.650;2023-03-16T07:48:49;7.38;;;6.78;;
40623;SDS011;26325;48.594;11.650;2023-03-16T07:53:43;6.78;;;6.18;;
40623;SDS011;26325;48.594;11.650;2023-03-16T07:56:09;6.75;;;6.15;;
40623;SDS011;26325;48.594;11.650;2023-03-16T07:58:35;6.85;;;6.25;;
40623;SDS011;26325;48.594;11.650;2023-03-16T08:03:29;6.97;;;6.28;;
40623;SDS011;26325;48.594;11.650;2023-03-16T08:05:55;5.90;;;5.40;;
40623;SDS011;26325;48.594;11.650;2023-03-16T08:10:48;5.20;;;4.75;;
40623;SDS011;26325;48.594;11.650;2023-03-16T08:13:17;5.57;;;5.07;;
40623;SDS011;26325;48.594;11.650;2023-03-16T08:15:47;6.05;;;5.05;;
40623;SDS011;26325;48.594;11.650;2023-03-16T08:18:20;6.45;;;5.85;;
40623;SDS011;26325;48.594;11.650;2023-03-16T08:20:48;6.45;;;5.90;;
40623;SDS011;26325;48.594;11.650;2023-03-16T08:25:39;5.95;;;5.45;;
40623;SDS011;26325;48.594;11.650;2023-03-16T08:30:33;6.55;;;5.95;;
40623;SDS011;26325;48.594;11.650;2023-03-16T08:33:02;5.93;;;5.43;;
40623;SDS011;26325;48.594;11.650;2023-03-16T08:35:28;5.43;;;5.00;;
40623;SDS011;26325;48.594;11.650;2023-03-16T08:37:57;5.30;;;4.90;;
40623;SDS011;26325;48.594;11.650;2023-03-16T08:40:24;5.82;;;5.32;;
40623;SDS011;26325;48.594;11.650;2023-03-16T08:45:15;5.53;;;5.10;;
40623;SDS011;26325;48.594;11.650;2023-03-16T08:47:42;5.95;;;5.45;;
40623;SDS011;26325;48.594;11.650;2023-03-16T08:50:09;5.90;;;5.40;;
40623;SDS011;26325;48.594;11.650;2023-03-16T08:52:39;5.30;;;4.90;;
40623;SDS011;26325;48.594;11.650;2023-03-16T08:55:07;5.80;;;5.30;;
40623;SDS011;26325;48.594;11.650;2023-03-16T08:57:35;5.47;;;4.97;;
40623;SDS011;26325;48.594;11.650;2023-03-16T09:00:03;5.70;;;5.20;;
40623;SDS011;26325;48.594;11.650;2023-03-16T09:02:36;5.35;;;4.95;;
40623;SDS011;26325;48.594;11.650;2023-03-16T09:05:03;5.70;;;5.28;;
40623;SDS011;26325;48.594;11.650;2023-03-16T09:09:54;6.03;;;5.53;;
40623;SDS011;26325;48.594;11.650;2023-03-16T09:14:46;5.30;;;4.90;;
40623;SDS011;26325;48.594;11.650;2023-03-16T09:17:13;5.30;;;4.90;;
40623;SDS011;26325;48.594;11.650;2023-03-16T09:22:07;5.40;;;5.00;;
40623;SDS011;26325;48.594;11.650;2023-03-16T09:24:32;4.80;;;4.40;;
40623;SDS011;26325;48.594;11.650;2023-03-16T09:29:24;5.45;;;5.05;;
40623;SDS011;26325;48.594;11.650;2023-03-16T09:34:15;5.55;;;5.10;;
40623;SDS011;26325;48.594;11.650;2023-03-16T09:39:09;5.53;;;5.10;;
40623;SDS011;26325;48.594;11.650;2023-03-16T09:42:07;5.88;;;5.38;;
40623;SDS011;26325;48.594;11.650;2023-03-16T09:47:32;5.50;;;5.05;;
40623;SDS011;26325;48.594;11.650;2023-03-16T09:50:06;6.15;;;5.65;;
40623;SDS011;26325;48.594;11.650;2023-03-16T09:55:42;5.45;;;4.97;;
40623;SDS011;26325;48.594;11.650;2023-03-16T09:58:46;5.10;;;4.60;;
40623;SDS011;26325;48.594;11.650;2023-03-16T10:02:55;6.32;;;5.72;;
40623;SDS011;26325;48.594;11.650;2023-03-16T10:05:14;6.13;;;5.63;;
40623;SDS011;26325;48.594;11.650;2023-03-16T10:13:36;5.78;;;5.28;;
40623;SDS011;26325;48.594;11.650;2023-03-16T10:19:01;7.82;;;7.13;;
40623;SDS011;26325;48.594;11.650;2023-03-16T10:21:53;7.05;;;6.43;;
40623;SDS011;26325;48.594;11.650;2023-03-16T10:24:43;6.88;;;6.20;;
40623;SDS011;26325;48.594;11.650;2023-03-16T10:27:25;7.80;;;7.10;;
40623;SDS011;26325;48.594;11.650;2023-03-16T10:29:55;7.05;;;6.35;;
40623;SDS011;26325;48.594;11.650;2023-03-16T10:35:00;8.90;;;8.00;;
40623;SDS011;26325;48.594;11.650;2023-03-16T10:37:30;8.77;;;8.05;;
40623;SDS011;26325;48.594;11.650;2023-03-16T10:39:59;8.90;;;8.10;;
40623;SDS011;26325;48.594;11.650;2023-03-16T10:42:25;9.07;;;8.27;;
40623;SDS011;26325;48.594;11.650;2023-03-16T10:44:58;8.02;;;7.35;;
40623;SDS011;26325;48.594;11.650;2023-03-16T10:47:29;8.82;;;8.02;;
40623;SDS011;26325;48.594;11.650;2023-03-16T10:49:56;8.43;;;7.72;;
40623;SDS011;26325;48.594;11.650;2023-03-16T10:52:39;7.80;;;7.10;;
40623;SDS011;26325;48.594;11.650;2023-03-16T10:55:28;6.60;;;6.05;;
40623;SDS011;26325;48.594;11.650;2023-03-16T10:57:58;7.30;;;6.70;;
40623;SDS011;26325;48.594;11.650;2023-03-16T11:03:01;4.82;;;4.43;;
40623;SDS011;26325;48.594;11.650;2023-03-16T11:05:44;7.40;;;6.78;;
40623;SDS011;26325;48.594;11.650;2023-03-16T11:10:40;9.20;;;8.35;;
40623;SDS011;26325;48.594;11.650;2023-03-16T11:18:04;7.32;;;6.72;;
40623;SDS011;26325;48.594;11.650;2023-03-16T11:20:36;8.23;;;7.43;;
40623;SDS011;26325;48.594;11.650;2023-03-16T11:23:05;6.90;;;6.35;;
40623;SDS011;26325;48.594;11.650;2023-03-16T11:25:43;7.45;;;6.82;;
40623;SDS011;26325;48.594;11.650;2023-03-16T11:28:15;8.77;;;8.07;;
40623;SDS011;26325;48.594;11.650;2023-03-16T11:31:35;8.35;;;7.65;;
40623;SDS011;26325;48.594;11.650;2023-03-16T11:34:28;7.53;;;6.82;;
40623;SDS011;26325;48.594;11.650;2023-03-16T11:51:44;7.35;;;6.75;;
40623;SDS011;26325;48.594;11.650;2023-03-16T11:54:20;7.18;;;6.57;;
40623;SDS011;26325;48.594;11.650;2023-03-16T11:56:53;6.88;;;6.25;;
40623;SDS011;26325;48.594;11.650;2023-03-16T12:05:40;6.93;;;6.35;;
40623;SDS011;26325;48.594;11.650;2023-03-16T12:11:07;5.55;;;5.05;;
40623;SDS011;26325;48.594;11.650;2023-03-16T12:19:25;7.07;;;6.40;;
40623;SDS011;26325;48.594;11.650;2023-03-16T12:22:20;6.35;;;5.85;;
40623;SDS011;26325;48.594;11.650;2023-03-16T12:24:52;6.43;;;6.03;;
40623;SDS011;26325;48.594;11.650;2023-03-16T12:27:38;6.97;;;6.38;;
40623;SDS011;26325;48.594;11.650;2023-03-16T12:48:15;4.45;;;4.15;;
40623;SDS011;26325;48.594;11.650;2023-03-16T12:50:51;5.38;;;4.97;;
40623;SDS011;26325;48.594;11.650;2023-03-16T12:56:32;5.50;;;5.00;;
40623;SDS011;26325;48.594;11.650;2023-03-16T12:59:15;5.50;;;5.00;;
40623;SDS011;26325;48.594;11.650;2023-03-16T13:01:47;5.00;;;4.60;;
40623;SDS011;26325;48.594;11.650;2023-03-16T13:04:28;4.95;;;4.55;;
40623;SDS011;26325;48.594;11.650;2023-03-16T13:07:03;5.13;;;4.72;;
40623;SDS011;26325;48.594;11.650;2023-03-16T13:09:34;4.97;;;4.57;;
40623;SDS011;26325;48.594;11.650;2023-03-16T13:12:06;4.95;;;4.50;;
40623;SDS011;26325;48.594;11.650;2023-03-16T13:14:42;4.78;;;4.40;;
40623;SDS011;26325;48.594;11.650;2023-03-16T13:19:40;4.30;;;3.90;;
40623;SDS011;26325;48.594;11.650;2023-03-16T13:24:52;4.68;;;4.22;;
40623;SDS011;26325;48.594;11.650;2023-03-16T13:27:38;4.05;;;3.75;;
40623;SDS011;26325;48.594;11.650;2023-03-16T13:30:19;3.97;;;3.67;;
40623;SDS011;26325;48.594;11.650;2023-03-16T13:32:47;3.70;;;3.50;;
40623;SDS011;26325;48.594;11.650;2023-03-16T13:35:23;3.70;;;3.40;;
40623;SDS011;26325;48.594;11.650;2023-03-16T13:37:52;3.80;;;3.50;;
40623;SDS011;26325;48.594;11.650;2023-03-16T13:40:25;3.70;;;3.40;;
40623;SDS011;26325;48.594;11.650;2023-03-16T13:42:52;4.22;;;3.92;;
40623;SDS011;26325;48.594;11.650;2023-03-16T13:45:36;4.10;;;3.80;;
40623;SDS011;26325;48.594;11.650;2023-03-16T13:48:02;3.70;;;3.40;;
40623;SDS011;26325;48.594;11.650;2023-03-16T13:50:33;3.95;;;3.65;;
40623;SDS011;26325;48.594;11.650;2023-03-16T13:53:04;4.22;;;3.92;;
40623;SDS011;26325;48.594;11.650;2023-03-16T13:55:38;4.30;;;4.00;;
40623;SDS011;26325;48.594;11.650;2023-03-16T13:58:04;4.03;;;3.72;;
40623;SDS011;26325;48.594;11.650;2023-03-16T14:00:35;4.43;;;4.10;;
40623;SDS011;26325;48.594;11.650;2023-03-16T14:03:13;4.13;;;3.83;;
40623;SDS011;26325;48.594;11.650;2023-03-16T14:05:42;3.60;;;3.30;;
40623;SDS011;26325;48.594;11.650;2023-03-16T14:10:44;3.40;;;3.20;;
40623;SDS011;26325;48.594;11.650;2023-03-16T14:15:55;3.63;;;3.33;;
40623;SDS011;26325;48.594;11.650;2023-03-16T14:18:26;3.60;;;3.30;;
40623;SDS011;26325;48.594;11.650;2023-03-16T14:21:06;3.67;;;3.38;;
40623;SDS011;26325;48.594;11.650;2023-03-16T14:23:40;3.30;;;3.00;;
40623;SDS011;26325;48.594;11.650;2023-03-16T14:26:11;3.20;;;3.00;;
40623;SDS011;26325;48.594;11.650;2023-03-16T14:28:39;3.20;;;3.00;;
40623;SDS011;26325;48.594;11.650;2023-03-16T14:31:11;3.88;;;3.30;;
40623;SDS011;26325;48.594;11.650;2023-03-16T14:33:39;3.95;;;3.65;;
40623;SDS011;26325;48.594;11.650;2023-03-16T14:36:14;3.60;;;3.30;;
40623;SDS011;26325;48.594;11.650;2023-03-16T14:38:43;3.13;;;2.92;;
40623;SDS011;26325;48.594;11.650;2023-03-16T14:41:26;3.20;;;3.00;;
40623;SDS011;26325;48.594;11.650;2023-03-16T14:43:58;3.70;;;2.90;;
40623;SDS011;26325;48.594;11.650;2023-03-16T14:46:52;3.88;;;3.03;;
40623;SDS011;26325;48.594;11.650;2023-03-16T14:49:24;3.97;;;3.42;;
40623;SDS011;26325;48.594;11.650;2023-03-16T14:52:27;4.00;;;3.70;;
40623;SDS011;26325;48.594;11.650;2023-03-16T14:54:58;3.42;;;3.13;;
40623;SDS011;26325;48.594;11.650;2023-03-16T14:57:26;2.50;;;2.40;;
40623;SDS011;26325;48.594;11.650;2023-03-16T15:02:24;2.80;;;2.60;;
40623;SDS011;26325;48.594;11.650;2023-03-16T15:04:53;2.70;;;2.50;;
40623;SDS011;26325;48.594;11.650;2023-03-16T15:07:28;3.03;;;2.72;;
40623;SDS011;26325;48.594;11.650;2023-03-16T15:10:02;2.80;;;2.60;;
40623;SDS011;26325;48.594;11.650;2023-03-16T15:12:34;3.80;;;3.50;;
40623;SDS011;26325;48.594;11.650;2023-03-16T15:15:23;4.18;;;3.88;;
40623;SDS011;26325;48.594;11.650;2023-03-16T15:17:52;4.10;;;3.60;;
40623;SDS011;26325;48.594;11.650;2023-03-16T15:20:18;3.30;;;3.10;;
40623;SDS011;26325;48.594;11.650;2023-03-16T15:22:48;3.40;;;3.10;;
40623;SDS011;26325;48.594;11.650;2023-03-16T15:25:34;3.60;;;3.30;;
40623;SDS011;26325;48.594;11.650;2023-03-16T15:28:15;3.80;;;3.20;;
40623;SDS011;26325;48.594;11.650;2023-03-16T15:30:51;3.55;;;3.28;;
40623;SDS011;26325;48.594;11.650;2023-03-16T15:33:18;3.40;;;3.10;;
40623;SDS011;26325;48.594;11.650;2023-03-16T15:40:45;3.72;;;3.53;;
40623;SDS011;26325;48.594;11.650;2023-03-16T15:43:14;3.88;;;3.58;;
40623;SDS011;26325;48.594;11.650;2023-03-16T15:45:41;3.78;;;3.47;;
40623;SDS011;26325;48.594;11.650;2023-03-16T15:48:08;5.65;;;3.80;;
40623;SDS011;26325;48.594;11.650;2023-03-16T15:50:35;4.15;;;3.75;;
40623;SDS011;26325;48.594;11.650;2023-03-16T15:53:09;3.95;;;3.65;;
40623;SDS011;26325;48.594;11.650;2023-03-16T15:55:40;4.60;;;4.20;;
40623;SDS011;26325;48.594;11.650;2023-03-16T15:58:20;4.35;;;3.67;;
40623;SDS011;26325;48.594;11.650;2023-03-16T16:00:50;3.85;;;3.55;;
40623;SDS011;26325;48.594;11.650;2023-03-16T16:03:20;3.50;;;3.20;;
40623;SDS011;26325;48.594;11.650;2023-03-16T16:05:48;4.85;;;3.90;;
40623;SDS011;26325;48.594;11.650;2023-03-16T16:08:14;4.70;;;4.30;;
40623;SDS011;26325;48.594;11.650;2023-03-16T16:13:28;4.18;;;3.88;;
40623;SDS011;26325;48.594;11.650;2023-03-16T16:15:55;3.75;;;3.45;;
40623;SDS011;26325;48.594;11.650;2023-03-16T16:18:29;4.35;;;3.95;;
40623;SDS011;26325;48.594;11.650;2023-03-16T16:20:59;4.00;;;3.70;;
40623;SDS011;26325;48.594;11.650;2023-03-16T16:23:27;3.83;;;3.53;;
40623;SDS011;26325;48.594;11.650;2023-03-16T16:25:57;3.70;;;3.40;;
40623;SDS011;26325;48.594;11.650;2023-03-16T16:28:28;4.13;;;3.72;;
40623;SDS011;26325;48.594;11.650;2023-03-16T16:30:56;3.72;;;3.42;;
40623;SDS011;26325;48.594;11.650;2023-03-16T16:36:01;3.55;;;3.20;;
40623;SDS011;26325;48.594;11.650;2023-03-16T16:38:31;3.42;;;3.13;;
40623;SDS011;26325;48.594;11.650;2023-03-16T16:46:21;3.63;;;3.33;;
40623;SDS011;26325;48.594;11.650;2023-03-16T16:48:53;3.80;;;3.50;;
40623;SDS011;26325;48.594;11.650;2023-03-16T16:51:25;4.70;;;3.58;;
40623;SDS011;26325;48.594;11.650;2023-03-16T16:53:53;4.10;;;3.78;;
40623;SDS011;26325;48.594;11.650;2023-03-16T16:56:32;3.90;;;3.28;;
40623;SDS011;26325;48.594;11.650;2023-03-16T17:01:50;3.50;;;3.20;;
40623;SDS011;26325;48.594;11.650;2023-03-16T17:04:27;3.20;;;2.90;;
40623;SDS011;26325;48.594;11.650;2023-03-16T17:06:57;3.35;;;2.85;;
40623;SDS011;26325;48.594;11.650;2023-03-16T17:09:27;3.35;;;3.05;;
40623;SDS011;26325;48.594;11.650;2023-03-16T17:11:53;3.15;;;2.95;;
40623;SDS011;26325;48.594;11.650;2023-03-16T17:14:22;3.25;;;3.00;;
40623;SDS011;26325;48.594;11.650;2023-03-16T17:16:51;3.60;;;3.30;;
40623;SDS011;26325;48.594;11.650;2023-03-16T17:21:47;2.65;;;2.45;;
40623;SDS011;26325;48.594;11.650;2023-03-16T17:24:14;4.28;;;3.72;;
40623;SDS011;26325;48.594;11.650;2023-03-16T17:26:49;3.60;;;3.30;;
40623;SDS011;26325;48.594;11.650;2023-03-16T17:32:02;2.90;;;2.05;;
40623;SDS011;26325;48.594;11.650;2023-03-16T17:34:32;3.20;;;2.90;;
40623;SDS011;26325;48.594;11.650;2023-03-16T17:36:58;3.30;;;3.00;;
40623;SDS011;26325;48.594;11.650;2023-03-16T17:39:28;2.72;;;2.45;;
40623;SDS011;26325;48.594;11.650;2023-03-16T17:44:23;2.45;;;2.25;;
40623;SDS011;26325;48.594;11.650;2023-03-16T17:46:51;3.45;;;3.15;;
40623;SDS011;26325;48.594;11.650;2023-03-16T17:51:44;3.25;;;2.95;;
40623;SDS011;26325;48.594;11.650;2023-03-16T17:54:11;4.20;;;3.22;;